Annville, Pennsylvania
Current Conditions -  °F | °C
As of 5:58 AM on Sunday 23 Nov 2014 (Local Time) from KMUI Reporting Station
Overcast Overcast  
Wind Chill: 31°   Ceiling: 10000
Heat Index: 31°   Visibility: 10mi
Dew Point: 26°   Wind: 0mph
Humidity: 82%   Direction: NA
Pressure: 30.19"   Gusts: NA
Location:  40.33°N, 76.51°W
Report Text: KMUI 231058Z AUTO 00000KT 10SM FEW065 OVC100 00/M03 A3019 RMK AO2 SLP231 T10041031 $
Loading
Personal Weather Stations






























Interactive Weather Map New forecast layout! Learn more

10-Day Weather Forecast

Advertisements
Track Severe Weather on mobile